sensor_id;sensor_type;location;lat;lon;timestamp;pressure;altitude;pressure_sealevel;temperature;humidity
66273;BME280;58450;52.150;4.466;2023-05-24T00:00:35;102533.09;;;10.13;100.00
66273;BME280;58450;52.150;4.466;2023-05-24T00:03:02;102523.75;;;9.98;100.00
66273;BME280;58450;52.150;4.466;2023-05-24T00:05:33;102520.53;;;9.94;100.00
66273;BME280;58450;52.150;4.466;2023-05-24T00:08:02;102521.09;;;9.88;100.00
66273;BME280;58450;52.150;4.466;2023-05-24T00:10:30;102521.09;;;9.88;100.00
66273;BME280;58450;52.150;4.466;2023-05-24T00:12:57;102514.00;;;9.87;100.00
66273;BME280;58450;52.150;4.466;2023-05-24T00:15:25;102518.09;;;9.81;100.00
66273;BME280;58450;52.150;4.466;2023-05-24T00:17:52;102522.34;;;9.74;100.00
66273;BME280;58450;52.150;4.466;2023-05-24T00:20:20;102523.03;;;9.66;100.00
66273;BME280;58450;52.150;4.466;2023-05-24T00:22:49;102514.16;;;9.66;100.00
66273;BME280;58450;52.150;4.466;2023-05-24T00:25:17;102503.78;;;9.61;100.00
66273;BME280;58450;52.150;4.466;2023-05-24T00:27:44;102513.56;;;9.52;100.00
66273;BME280;58450;52.150;4.466;2023-05-24T00:30:12;102517.50;;;9.48;100.00
66273;BME280;58450;52.150;4.466;2023-05-24T00:32:39;102514.81;;;9.48;100.00
66273;BME280;58450;52.150;4.466;2023-05-24T00:35:07;102512.97;;;9.49;100.00
66273;BME280;58450;52.150;4.466;2023-05-24T00:37:35;102522.59;;;9.51;100.00
66273;BME280;58450;52.150;4.466;2023-05-24T00:40:08;102524.88;;;9.56;100.00
66273;BME280;58450;52.150;4.466;2023-05-24T00:42:36;102525.28;;;9.51;100.00
66273;BME280;58450;52.150;4.466;2023-05-24T00:45:04;102521.06;;;9.58;100.00
66273;BME280;58450;52.150;4.466;2023-05-24T00:47:33;102525.41;;;9.40;100.00
66273;BME280;58450;52.150;4.466;2023-05-24T00:50:01;102505.78;;;9.49;100.00
66273;BME280;58450;52.150;4.466;2023-05-24T00:52:29;102510.28;;;9.49;100.00
66273;BME280;58450;52.150;4.466;2023-05-24T00:54:57;102513.69;;;9.51;100.00
66273;BME280;58450;52.150;4.466;2023-05-24T00:57:26;102509.72;;;9.55;100.00
66273;BME280;58450;52.150;4.466;2023-05-24T00:59:55;102513.13;;;9.57;100.00
66273;BME280;58450;52.150;4.466;2023-05-24T01:02:23;102511.41;;;9.56;100.00
66273;BME280;58450;52.150;4.466;2023-05-24T01:04:50;102510.59;;;9.55;100.00
66273;BME280;58450;52.150;4.466;2023-05-24T01:07:23;102514.25;;;9.54;100.00
66273;BME280;58450;52.150;4.466;2023-05-24T01:10:08;102511.09;;;9.29;100.00
66273;BME280;58450;52.150;4.466;2023-05-24T01:12:54;102517.28;;;9.20;100.00
66273;BME280;58450;52.150;4.466;2023-05-24T01:15:32;102520.13;;;9.19;100.00
66273;BME280;58450;52.150;4.466;2023-05-24T01:18:13;102523.97;;;9.26;100.00
66273;BME280;58450;52.150;4.466;2023-05-24T01:20:48;102520.00;;;9.30;100.00
66273;BME280;58450;52.150;4.466;2023-05-24T01:23:31;102513.63;;;9.31;100.00
66273;BME280;58450;52.150;4.466;2023-05-24T01:26:18;102515.47;;;9.21;100.00
66273;BME280;58450;52.150;4.466;2023-05-24T01:28:54;102514.59;;;9.10;100.00
66273;BME280;58450;52.150;4.466;2023-05-24T01:31:22;102504.09;;;9.07;100.00
66273;BME280;58450;52.150;4.466;2023-05-24T01:33:50;102509.75;;;9.04;100.00
66273;BME280;58450;52.150;4.466;2023-05-24T01:36:18;102511.91;;;9.10;100.00
66273;BME280;58450;52.150;4.466;2023-05-24T01:38:46;102515.69;;;9.08;100.00
66273;BME280;58450;52.150;4.466;2023-05-24T01:41:26;102517.09;;;9.02;100.00
66273;BME280;58450;52.150;4.466;2023-05-24T01:44:12;102510.28;;;8.98;100.00
66273;BME280;58450;52.150;4.466;2023-05-24T01:46:49;102508.16;;;9.01;100.00
66273;BME280;58450;52.150;4.466;2023-05-24T01:49:30;102503.94;;;8.99;100.00
66273;BME280;58450;52.150;4.466;2023-05-24T01:52:04;102502.81;;;9.01;100.00
66273;BME280;58450;52.150;4.466;2023-05-24T01:54:43;102505.81;;;9.08;100.00
66273;BME280;58450;52.150;4.466;2023-05-24T01:57:17;102503.84;;;9.10;100.00
66273;BME280;58450;52.150;4.466;2023-05-24T01:59:49;102496.06;;;9.07;100.00
66273;BME280;58450;52.150;4.466;2023-05-24T02:02:17;102489.53;;;9.00;100.00
66273;BME280;58450;52.150;4.466;2023-05-24T02:04:45;102488.25;;;9.04;100.00
66273;BME280;58450;52.150;4.466;2023-05-24T02:07:13;102481.47;;;9.10;100.00
66273;BME280;58450;52.150;4.466;2023-05-24T02:09:40;102493.81;;;9.12;100.00
66273;BME280;58450;52.150;4.466;2023-05-24T02:12:09;102485.31;;;9.07;100.00
66273;BME280;58450;52.150;4.466;2023-05-24T02:14:37;102489.38;;;9.01;100.00
66273;BME280;58450;52.150;4.466;2023-05-24T02:17:08;102481.59;;;8.98;100.00
66273;BME280;58450;52.150;4.466;2023-05-24T02:19:36;102485.50;;;8.84;100.00
66273;BME280;58450;52.150;4.466;2023-05-24T02:22:04;102486.50;;;8.93;100.00
66273;BME280;58450;52.150;4.466;2023-05-24T02:24:32;102485.41;;;8.96;100.00
66273;BME280;58450;52.150;4.466;2023-05-24T02:26:59;102481.28;;;8.92;100.00
66273;BME280;58450;52.150;4.466;2023-05-24T02:29:27;102473.94;;;8.94;100.00
66273;BME280;58450;52.150;4.466;2023-05-24T02:31:55;102478.78;;;9.00;100.00
66273;BME280;58450;52.150;4.466;2023-05-24T02:34:24;102478.09;;;9.08;100.00
66273;BME280;58450;52.150;4.466;2023-05-24T02:36:51;102479.94;;;9.07;100.00
66273;BME280;58450;52.150;4.466;2023-05-24T02:39:20;102483.47;;;9.08;100.00
66273;BME280;58450;52.150;4.466;2023-05-24T02:41:48;102485.66;;;9.24;100.00
66273;BME280;58450;52.150;4.466;2023-05-24T02:44:15;102487.63;;;9.31;100.00
66273;BME280;58450;52.150;4.466;2023-05-24T02:46:43;102485.50;;;9.25;100.00
66273;BME280;58450;52.150;4.466;2023-05-24T02:49:10;102484.94;;;9.22;100.00
66273;BME280;58450;52.150;4.466;2023-05-24T02:51:40;102494.53;;;9.14;100.00
66273;BME280;58450;52.150;4.466;2023-05-24T02:54:07;102491.56;;;9.18;100.00
66273;BME280;58450;52.150;4.466;2023-05-24T02:56:35;102495.69;;;9.31;100.00
66273;BME280;58450;52.150;4.466;2023-05-24T02:59:02;102494.72;;;9.42;100.00
66273;BME280;58450;52.150;4.466;2023-05-24T03:01:30;102498.97;;;9.45;100.00
66273;BME280;58450;52.150;4.466;2023-05-24T03:03:58;102488.50;;;9.52;100.00
66273;BME280;58450;52.150;4.466;2023-05-24T03:06:26;102482.00;;;9.54;100.00
66273;BME280;58450;52.150;4.466;2023-05-24T03:08:55;102487.13;;;9.57;100.00
66273;BME280;58450;52.150;4.466;2023-05-24T03:11:23;102478.03;;;9.49;100.00
66273;BME280;58450;52.150;4.466;2023-05-24T03:13:51;102486.66;;;9.42;100.00
66273;BME280;58450;52.150;4.466;2023-05-24T03:16:18;102485.06;;;9.30;100.00
66273;BME280;58450;52.150;4.466;2023-05-24T03:18:46;102478.16;;;9.27;100.00
66273;BME280;58450;52.150;4.466;2023-05-24T03:21:15;102481.09;;;9.24;100.00
66273;BME280;58450;52.150;4.466;2023-05-24T03:23:45;102480.84;;;9.27;100.00
66273;BME280;58450;52.150;4.466;2023-05-24T03:26:14;102479.28;;;9.25;100.00
66273;BME280;58450;52.150;4.466;2023-05-24T03:28:41;102461.88;;;9.19;100.00
66273;BME280;58450;52.150;4.466;2023-05-24T03:31:09;102467.66;;;9.14;100.00
66273;BME280;58450;52.150;4.466;2023-05-24T03:33:37;102462.69;;;9.10;100.00
66273;BME280;58450;52.150;4.466;2023-05-24T03:36:05;102466.63;;;9.06;100.00
66273;BME280;58450;52.150;4.466;2023-05-24T03:38:32;102472.81;;;8.96;100.00
66273;BME280;58450;52.150;4.466;2023-05-24T03:41:00;102474.75;;;8.84;100.00
66273;BME280;58450;52.150;4.466;2023-05-24T03:43:29;102477.69;;;8.71;100.00
66273;BME280;58450;52.150;4.466;2023-05-24T03:45:56;102476.09;;;8.69;100.00
66273;BME280;58450;52.150;4.466;2023-05-24T03:48:24;102475.28;;;8.68;100.00
66273;BME280;58450;52.150;4.466;2023-05-24T03:50:51;102472.44;;;8.70;100.00
66273;BME280;58450;52.150;4.466;2023-05-24T03:53:19;102474.59;;;8.76;100.00
66273;BME280;58450;52.150;4.466;2023-05-24T03:55:47;102478.16;;;8.86;100.00
66273;BME280;58450;52.150;4.466;2023-05-24T03:58:14;102477.63;;;8.93;100.00
66273;BME280;58450;52.150;4.466;2023-05-24T04:00:43;102481.47;;;9.00;100.00
66273;BME280;58450;52.150;4.466;2023-05-24T04:03:11;102480.34;;;9.02;100.00
66273;BME280;58450;52.150;4.466;2023-05-24T04:05:39;102481.75;;;9.07;100.00
66273;BME280;58450;52.150;4.466;2023-05-24T04:08:07;102484.75;;;9.13;100.00
66273;BME280;58450;52.150;4.466;2023-05-24T04:10:34;102481.09;;;9.24;100.00
66273;BME280;58450;52.150;4.466;2023-05-24T04:13:02;102487.06;;;9.38;100.00
66273;BME280;58450;52.150;4.466;2023-05-24T04:15:29;102486.81;;;9.51;100.00
66273;BME280;58450;52.150;4.466;2023-05-24T04:17:58;102495.88;;;9.69;100.00
66273;BME280;58450;52.150;4.466;2023-05-24T04:20:28;102491.78;;;9.95;100.00
66273;BME280;58450;52.150;4.466;2023-05-24T04:22:55;102491.22;;;10.11;100.00
66273;BME280;58450;52.150;4.466;2023-05-24T04:25:23;102483.69;;;10.14;100.00
66273;BME280;58450;52.150;4.466;2023-05-24T04:27:51;102497.13;;;10.24;100.00
66273;BME280;58450;52.150;4.466;2023-05-24T04:30:19;102489.47;;;10.29;100.00
66273;BME280;58450;52.150;4.466;2023-05-24T04:32:47;102495.72;;;10.40;100.00
66273;BME280;58450;52.150;4.466;2023-05-24T04:35:16;102491.72;;;10.54;100.00
66273;BME280;58450;52.150;4.466;2023-05-24T04:37:43;102500.00;;;10.70;100.00
66273;BME280;58450;52.150;4.466;2023-05-24T04:40:13;102487.44;;;10.99;100.00
66273;BME280;58450;52.150;4.466;2023-05-24T04:42:41;102493.13;;;10.96;100.00
66273;BME280;58450;52.150;4.466;2023-05-24T04:45:09;102490.72;;;10.92;100.00
66273;BME280;58450;52.150;4.466;2023-05-24T04:47:37;102482.28;;;11.05;100.00
66273;BME280;58450;52.150;4.466;2023-05-24T04:50:06;102480.75;;;11.03;100.00
66273;BME280;58450;52.150;4.466;2023-05-24T04:52:35;102482.94;;;10.89;100.00
66273;BME280;58450;52.150;4.466;2023-05-24T04:55:04;102477.31;;;11.11;100.00
66273;BME280;58450;52.150;4.466;2023-05-24T04:57:32;102475.41;;;11.21;100.00
66273;BME280;58450;52.150;4.466;2023-05-24T04:59:59;102488.00;;;11.20;100.00
66273;BME280;58450;52.150;4.466;2023-05-24T05:02:27;102480.41;;;11.34;100.00
66273;BME280;58450;52.150;4.466;2023-05-24T05:04:54;102488.00;;;11.48;100.00
66273;BME280;58450;52.150;4.466;2023-05-24T05:07:21;102490.16;;;11.63;100.00
66273;BME280;58450;52.150;4.466;2023-05-24T05:09:51;102483.53;;;11.75;100.00
66273;BME280;58450;52.150;4.466;2023-05-24T05:12:18;102482.16;;;11.71;100.00
66273;BME280;58450;52.150;4.466;2023-05-24T05:14:46;102481.19;;;11.98;100.00
66273;BME280;58450;52.150;4.466;2023-05-24T05:17:13;102485.50;;;12.27;100.00
66273;BME280;58450;52.150;4.466;2023-05-24T05:19:41;102484.34;;;12.30;100.00
66273;BME280;58450;52.150;4.466;2023-05-24T05:22:08;102478.13;;;12.38;100.00
66273;BME280;58450;52.150;4.466;2023-05-24T05:24:36;102488.78;;;12.39;100.00
66273;BME280;58450;52.150;4.466;2023-05-24T05:27:05;102489.03;;;12.54;100.00
66273;BME280;58450;52.150;4.466;2023-05-24T05:29:32;102489.66;;;12.48;100.00
66273;BME280;58450;52.150;4.466;2023-05-24T05:32:00;102491.09;;;12.34;100.00
66273;BME280;58450;52.150;4.466;2023-05-24T05:34:27;102495.75;;;12.50;100.00
66273;BME280;58450;52.150;4.466;2023-05-24T05:36:54;102492.84;;;12.44;100.00
66273;BME280;58450;52.150;4.466;2023-05-24T05:39:22;102499.31;;;12.51;100.00
66273;BME280;58450;52.150;4.466;2023-05-24T05:41:49;102507.59;;;12.84;100.00
66273;BME280;58450;52.150;4.466;2023-05-24T05:44:18;102507.06;;;12.80;100.00
66273;BME280;58450;52.150;4.466;2023-05-24T05:46:46;102506.63;;;12.93;100.00
66273;BME280;58450;52.150;4.466;2023-05-24T05:49:14;102505.34;;;12.71;100.00
66273;BME280;58450;52.150;4.466;2023-05-24T05:51:43;102514.66;;;12.77;100.00
66273;BME280;58450;52.150;4.466;2023-05-24T05:54:12;102508.34;;;13.03;100.00
66273;BME280;58450;52.150;4.466;2023-05-24T05:56:43;102503.16;;;13.09;100.00
66273;BME280;58450;52.150;4.466;2023-05-24T05:59:13;102497.56;;;13.11;100.00
66273;BME280;58450;52.150;4.466;2023-05-24T06:01:43;102493.31;;;13.00;100.00
66273;BME280;58450;52.150;4.466;2023-05-24T06:04:12;102492.06;;;12.86;100.00
66273;BME280;58450;52.150;4.466;2023-05-24T06:06:39;102495.25;;;12.81;100.00
66273;BME280;58450;52.150;4.466;2023-05-24T06:09:07;102503.09;;;12.58;100.00
66273;BME280;58450;52.150;4.466;2023-05-24T06:11:34;102503.19;;;12.75;100.00
66273;BME280;58450;52.150;4.466;2023-05-24T06:14:02;102500.09;;;12.69;100.00
66273;BME280;58450;52.150;4.466;2023-05-24T06:16:30;102505.56;;;12.78;100.00
66273;BME280;58450;52.150;4.466;2023-05-24T06:18:59;102504.56;;;12.79;100.00
66273;BME280;58450;52.150;4.466;2023-05-24T06:21:26;102507.16;;;12.97;100.00
66273;BME280;58450;52.150;4.466;2023-05-24T06:23:55;102503.91;;;12.93;100.00
66273;BME280;58450;52.150;4.466;2023-05-24T06:26:23;102509.72;;;13.07;100.00
66273;BME280;58450;52.150;4.466;2023-05-24T06:28:52;102511.13;;;13.19;100.00
66273;BME280;58450;52.150;4.466;2023-05-24T06:31:19;102517.94;;;13.32;100.00
66273;BME280;58450;52.150;4.466;2023-05-24T06:33:47;102515.38;;;13.30;100.00
66273;BME280;58450;52.150;4.466;2023-05-24T06:36:15;102514.19;;;13.24;100.00
66273;BME280;58450;52.150;4.466;2023-05-24T06:38:43;102509.38;;;13.53;100.00
66273;BME280;58450;52.150;4.466;2023-05-24T06:41:10;102511.28;;;13.85;100.00
66273;BME280;58450;52.150;4.466;2023-05-24T06:43:38;102505.88;;;14.10;100.00
66273;BME280;58450;52.150;4.466;2023-05-24T06:46:05;102514.50;;;14.30;100.00
66273;BME280;58450;52.150;4.466;2023-05-24T06:48:33;102514.34;;;14.40;100.00
66273;BME280;58450;52.150;4.466;2023-05-24T06:51:00;102515.81;;;14.59;100.00
66273;BME280;58450;52.150;4.466;2023-05-24T06:53:30;102514.25;;;14.82;100.00
66273;BME280;58450;52.150;4.466;2023-05-24T06:55:57;102513.59;;;14.63;100.00
66273;BME280;58450;52.150;4.466;2023-05-24T06:58:25;102511.53;;;14.82;100.00
66273;BME280;58450;52.150;4.466;2023-05-24T07:00:52;102520.03;;;14.78;100.00
66273;BME280;58450;52.150;4.466;2023-05-24T07:03:20;102522.59;;;14.55;100.00
66273;BME280;58450;52.150;4.466;2023-05-24T07:05:48;102523.81;;;14.44;100.00
66273;BME280;58450;52.150;4.466;2023-05-24T07:08:15;102520.94;;;14.21;100.00
66273;BME280;58450;52.150;4.466;2023-05-24T07:10:44;102514.81;;;14.44;100.00
66273;BME280;58450;52.150;4.466;2023-05-24T07:13:12;102518.56;;;14.34;100.00
66273;BME280;58450;52.150;4.466;2023-05-24T07:15:40;102521.22;;;14.68;100.00
66273;BME280;58450;52.150;4.466;2023-05-24T07:18:08;102518.34;;;14.61;100.00
66273;BME280;58450;52.150;4.466;2023-05-24T07:20:36;102527.66;;;14.83;100.00
66273;BME280;58450;52.150;4.466;2023-05-24T07:23:04;102528.50;;;14.75;100.00
66273;BME280;58450;52.150;4.466;2023-05-24T07:25:32;102531.16;;;14.92;100.00
66273;BME280;58450;52.150;4.466;2023-05-24T07:28:01;102519.22;;;14.53;100.00
66273;BME280;58450;52.150;4.466;2023-05-24T07:30:28;102526.13;;;14.81;100.00
66273;BME280;58450;52.150;4.466;2023-05-24T07:32:56;102528.69;;;14.74;100.00
66273;BME280;58450;52.150;4.466;2023-05-24T07:35:24;102521.72;;;14.80;100.00
66273;BME280;58450;52.150;4.466;2023-05-24T07:37:53;102526.59;;;14.92;100.00
66273;BME280;58450;52.150;4.466;2023-05-24T07:40:21;102524.03;;;14.99;100.00
66273;BME280;58450;52.150;4.466;2023-05-24T07:42:49;102523.19;;;14.99;100.00
66273;BME280;58450;52.150;4.466;2023-05-24T07:45:17;102522.22;;;15.23;100.00
66273;BME280;58450;52.150;4.466;2023-05-24T07:47:45;102532.81;;;15.01;100.00
66273;BME280;58450;52.150;4.466;2023-05-24T07:50:12;102521.38;;;15.54;100.00
66273;BME280;58450;52.150;4.466;2023-05-24T07:52:40;102521.44;;;16.54;100.00
66273;BME280;58450;52.150;4.466;2023-05-24T07:55:08;102526.75;;;17.37;100.00
66273;BME280;58450;52.150;4.466;2023-05-24T07:57:36;102528.72;;;17.65;100.00
66273;BME280;58450;52.150;4.466;2023-05-24T08:00:05;102533.50;;;17.41;100.00
66273;BME280;58450;52.150;4.466;2023-05-24T08:02:41;102523.38;;;18.15;100.00
66273;BME280;58450;52.150;4.466;2023-05-24T08:05:11;102526.53;;;18.76;100.00
66273;BME280;58450;52.150;4.466;2023-05-24T08:07:39;102521.53;;;19.28;99.62
66273;BME280;58450;52.150;4.466;2023-05-24T08:10:09;102527.97;;;19.83;92.74
66273;BME280;58450;52.150;4.466;2023-05-24T08:12:38;102523.69;;;19.46;87.72
66273;BME280;58450;52.150;4.466;2023-05-24T08:15:06;102531.50;;;18.72;91.37
66273;BME280;58450;52.150;4.466;2023-05-24T08:17:34;102523.44;;;18.51;90.82
66273;BME280;58450;52.150;4.466;2023-05-24T08:20:04;102519.97;;;17.70;95.62
66273;BME280;58450;52.150;4.466;2023-05-24T08:22:34;102521.56;;;16.76;99.06
66273;BME280;58450;52.150;4.466;2023-05-24T08:25:02;102523.19;;;16.32;99.67
66273;BME280;58450;52.150;4.466;2023-05-24T08:27:31;102522.03;;;15.88;100.00
66273;BME280;58450;52.150;4.466;2023-05-24T08:29:58;102528.03;;;16.21;100.00
66273;BME280;58450;52.150;4.466;2023-05-24T08:32:26;102523.50;;;17.12;100.00
66273;BME280;58450;52.150;4.466;2023-05-24T08:34:54;102513.63;;;18.28;97.80
66273;BME280;58450;52.150;4.466;2023-05-24T08:37:23;102528.66;;;19.23;92.16
66273;BME280;58450;52.150;4.466;2023-05-24T08:39:51;102518.34;;;19.18;86.19
66273;BME280;58450;52.150;4.466;2023-05-24T08:42:20;102524.50;;;17.84;87.51
66273;BME280;58450;52.150;4.466;2023-05-24T08:44:52;102523.41;;;16.75;97.03
66273;BME280;58450;52.150;4.466;2023-05-24T08:47:25;102525.03;;;17.15;97.86
66273;BME280;58450;52.150;4.466;2023-05-24T08:49:55;102530.28;;;18.18;94.26
66273;BME280;58450;52.150;4.466;2023-05-24T08:52:25;102517.59;;;17.82;92.94
66273;BME280;58450;52.150;4.466;2023-05-24T08:54:54;102525.09;;;16.61;99.39
66273;BME280;58450;52.150;4.466;2023-05-24T08:57:22;102515.66;;;17.02;100.00
66273;BME280;58450;52.150;4.466;2023-05-24T08:59:50;102513.97;;;17.01;98.68
66273;BME280;58450;52.150;4.466;2023-05-24T09:02:21;102524.50;;;17.41;94.89
66273;BME280;58450;52.150;4.466;2023-05-24T09:04:51;102525.16;;;17.86;93.58
66273;BME280;58450;52.150;4.466;2023-05-24T09:07:21;102529.44;;;17.74;91.08
66273;BME280;58450;52.150;4.466;2023-05-24T09:09:56;102525.63;;;17.90;93.42
66273;BME280;58450;52.150;4.466;2023-05-24T09:12:28;102524.09;;;18.95;89.33
66273;BME280;58450;52.150;4.466;2023-05-24T09:14:58;102529.81;;;19.62;84.10
66273;BME280;58450;52.150;4.466;2023-05-24T09:17:27;102517.91;;;19.90;79.56
66273;BME280;58450;52.150;4.466;2023-05-24T09:19:57;102521.00;;;19.60;77.67
66273;BME280;58450;52.150;4.466;2023-05-24T09:22:27;102522.94;;;18.75;82.39
66273;BME280;58450;52.150;4.466;2023-05-24T09:24:59;102525.06;;;18.80;79.94
66273;BME280;58450;52.150;4.466;2023-05-24T09:27:27;102516.53;;;19.39;77.66
66273;BME280;58450;52.150;4.466;2023-05-24T09:29:57;102519.25;;;18.90;81.21
66273;BME280;58450;52.150;4.466;2023-05-24T09:32:25;102525.34;;;19.34;79.51
66273;BME280;58450;52.150;4.466;2023-05-24T09:34:55;102514.66;;;18.90;76.02
66273;BME280;58450;52.150;4.466;2023-05-24T09:37:25;102517.44;;;18.69;81.71
66273;BME280;58450;52.150;4.466;2023-05-24T09:39:54;102514.28;;;18.37;85.57
66273;BME280;58450;52.150;4.466;2023-05-24T09:42:25;102517.06;;;18.15;86.19
66273;BME280;58450;52.150;4.466;2023-05-24T09:44:59;102520.16;;;17.47;86.96
66273;BME280;58450;52.150;4.466;2023-05-24T09:47:28;102508.19;;;17.84;88.75
66273;BME280;58450;52.150;4.466;2023-05-24T09:49:56;102508.16;;;17.41;93.53
66273;BME280;58450;52.150;4.466;2023-05-24T09:52:23;102515.78;;;17.31;93.62
66273;BME280;58450;52.150;4.466;2023-05-24T09:54:51;102511.84;;;17.33;92.71
66273;BME280;58450;52.150;4.466;2023-05-24T09:57:19;102504.09;;;18.17;90.34
66273;BME280;58450;52.150;4.466;2023-05-24T09:59:49;102506.34;;;18.07;90.40
66273;BME280;58450;52.150;4.466;2023-05-24T10:02:20;102513.38;;;17.79;88.45
66273;BME280;58450;52.150;4.466;2023-05-24T10:04:57;102503.78;;;18.05;87.77
66273;BME280;58450;52.150;4.466;2023-05-24T10:07:26;102507.91;;;18.51;83.80
66273;BME280;58450;52.150;4.466;2023-05-24T10:09:53;102501.06;;;18.97;80.05
66273;BME280;58450;52.150;4.466;2023-05-24T10:12:22;102504.09;;;19.23;80.90
66273;BME280;58450;52.150;4.466;2023-05-24T10:14:52;102502.22;;;18.17;81.12
66273;BME280;58450;52.150;4.466;2023-05-24T10:17:23;102487.44;;;18.05;81.66
66273;BME280;58450;52.150;4.466;2023-05-24T10:19:52;102501.56;;;19.21;82.55
66273;BME280;58450;52.150;4.466;2023-05-24T10:22:20;102499.06;;;19.33;76.36
66273;BME280;58450;52.150;4.466;2023-05-24T10:24:52;102503.16;;;19.02;74.51
66273;BME280;58450;52.150;4.466;2023-05-24T10:27:27;102502.75;;;19.05;74.95
66273;BME280;58450;52.150;4.466;2023-05-24T10:30:03;102511.84;;;19.19;75.28
66273;BME280;58450;52.150;4.466;2023-05-24T10:32:42;102511.72;;;19.47;72.91
66273;BME280;58450;52.150;4.466;2023-05-24T10:35:13;102499.81;;;19.75;71.83
66273;BME280;58450;52.150;4.466;2023-05-24T10:37:44;102504.66;;;20.27;71.73
66273;BME280;58450;52.150;4.466;2023-05-24T10:40:16;102505.66;;;20.66;65.46
66273;BME280;58450;52.150;4.466;2023-05-24T10:42:45;102504.19;;;21.23;63.04
66273;BME280;58450;52.150;4.466;2023-05-24T10:45:35;102515.50;;;21.40;63.10
66273;BME280;58450;52.150;4.466;2023-05-24T10:48:08;102504.09;;;21.04;63.63
66273;BME280;58450;52.150;4.466;2023-05-24T10:50:50;102508.47;;;19.92;66.01
66273;BME280;58450;52.150;4.466;2023-05-24T10:53:19;102505.84;;;19.57;70.19
66273;BME280;58450;52.150;4.466;2023-05-24T10:55:55;102517.53;;;19.24;76.21
66273;BME280;58450;52.150;4.466;2023-05-24T10:58:27;102512.63;;;19.68;74.52
66273;BME280;58450;52.150;4.466;2023-05-24T11:01:13;102521.22;;;19.03;73.36
66273;BME280;58450;52.150;4.466;2023-05-24T11:03:52;102517.53;;;19.24;70.15
66273;BME280;58450;52.150;4.466;2023-05-24T11:06:45;102511.13;;;19.59;66.76
66273;BME280;58450;52.150;4.466;2023-05-24T11:09:14;102504.19;;;20.50;66.53
66273;BME280;58450;52.150;4.466;2023-05-24T11:11:45;102511.94;;;19.53;68.11
66273;BME280;58450;52.150;4.466;2023-05-24T11:14:17;102510.13;;;19.11;69.77
66273;BME280;58450;52.150;4.466;2023-05-24T11:16:49;102508.53;;;18.53;75.68
66273;BME280;58450;52.150;4.466;2023-05-24T11:19:18;102507.59;;;17.89;80.90
66273;BME280;58450;52.150;4.466;2023-05-24T11:21:48;102497.66;;;17.81;80.73
66273;BME280;58450;52.150;4.466;2023-05-24T11:24:19;102507.75;;;18.02;84.16
66273;BME280;58450;52.150;4.466;2023-05-24T11:26:48;102498.63;;;18.17;78.13
66273;BME280;58450;52.150;4.466;2023-05-24T11:29:17;102509.59;;;18.24;77.35
66273;BME280;58450;52.150;4.466;2023-05-24T11:31:49;102503.72;;;17.98;78.52
66273;BME280;58450;52.150;4.466;2023-05-24T11:34:17;102506.63;;;18.47;77.67
66273;BME280;58450;52.150;4.466;2023-05-24T11:36:46;102506.88;;;18.24;81.62
66273;BME280;58450;52.150;4.466;2023-05-24T11:39:14;102505.34;;;18.78;82.50
66273;BME280;58450;52.150;4.466;2023-05-24T11:41:43;102498.94;;;19.75;78.26
66273;BME280;58450;52.150;4.466;2023-05-24T11:44:11;102497.63;;;18.88;75.83
66273;BME280;58450;52.150;4.466;2023-05-24T11:46:39;102496.94;;;19.22;73.47
66273;BME280;58450;52.150;4.466;2023-05-24T11:49:13;102491.34;;;19.50;71.72
66273;BME280;58450;52.150;4.466;2023-05-24T11:51:41;102498.34;;;20.20;71.40
66273;BME280;58450;52.150;4.466;2023-05-24T11:54:09;102496.13;;;20.76;68.81
66273;BME280;58450;52.150;4.466;2023-05-24T11:56:37;102494.81;;;19.92;66.07
66273;BME280;58450;52.150;4.466;2023-05-24T11:59:08;102501.09;;;20.33;65.42
66273;BME280;58450;52.150;4.466;2023-05-24T12:01:40;102497.31;;;20.01;67.21
66273;BME280;58450;52.150;4.466;2023-05-24T12:04:08;102495.59;;;19.86;66.84
66273;BME280;58450;52.150;4.466;2023-05-24T12:06:39;102503.16;;;19.84;71.90
66273;BME280;58450;52.150;4.466;2023-05-24T12:09:08;102505.47;;;20.61;66.50
66273;BME280;58450;52.150;4.466;2023-05-24T12:11:38;102502.97;;;18.68;71.43
66273;BME280;58450;52.150;4.466;2023-05-24T12:14:11;102505.56;;;17.98;81.17
66273;BME280;58450;52.150;4.466;2023-05-24T12:16:41;102499.53;;;18.24;81.14
66273;BME280;58450;52.150;4.466;2023-05-24T12:19:12;102494.28;;;18.86;78.67
66273;BME280;58450;52.150;4.466;2023-05-24T12:21:43;102496.69;;;20.12;74.41
66273;BME280;58450;52.150;4.466;2023-05-24T12:24:12;102485.44;;;21.91;67.09
66273;BME280;58450;52.150;4.466;2023-05-24T12:26:41;102499.59;;;23.31;60.42
66273;BME280;58450;52.150;4.466;2023-05-24T12:29:10;102482.38;;;24.62;56.16
66273;BME280;58450;52.150;4.466;2023-05-24T12:31:39;102487.84;;;25.56;53.08
66273;BME280;58450;52.150;4.466;2023-05-24T12:34:10;102497.44;;;25.70;49.19
66273;BME280;58450;52.150;4.466;2023-05-24T12:36:39;102495.31;;;24.49;48.38
66273;BME280;58450;52.150;4.466;2023-05-24T12:39:19;102484.22;;;24.20;49.63
66273;BME280;58450;52.150;4.466;2023-05-24T12:41:52;102495.06;;;23.49;50.68
66273;BME280;58450;52.150;4.466;2023-05-24T12:44:22;102491.25;;;24.52;51.76
66273;BME280;58450;52.150;4.466;2023-05-24T12:46:52;102488.47;;;24.76;50.47
66273;BME280;58450;52.150;4.466;2023-05-24T12:49:21;102486.44;;;24.71;50.36
66273;BME280;58450;52.150;4.466;2023-05-24T12:51:50;102496.38;;;25.13;48.09
66273;BME280;58450;52.150;4.466;2023-05-24T12:54:22;102487.63;;;23.92;49.24
66273;BME280;58450;52.150;4.466;2023-05-24T12:56:51;102497.22;;;23.89;50.08
66273;BME280;58450;52.150;4.466;2023-05-24T12:59:19;102493.94;;;23.08;49.86